Time,TemperatureF,DewpointF,PressureIn,WindDirection,WindDirectionDegrees,WindSpeedMPH,WindSpeedGustMPH,Humidity,HourlyPrecipIn,Conditions,Clouds,dailyrainin,SoftwareType,DateUTC
2013-03-07 00:04:00,40.3,38.2,30.03,SW,218,0.0,0.0,92,0.00,,,0.00,WeatherCatV1.14B232,2013-03-07 08:04:00,
2013-03-07 00:09:00,40.3,38.2,30.03,SW,218,0.0,0.0,92,0.00,,,0.00,WeatherCatV1.14B232,2013-03-07 08:09:00,
2013-03-07 00:14:00,40.4,38.0,30.03,SW,218,0.0,0.0,91,0.00,,,0.00,WeatherCatV1.14B232,2013-03-07 08:14:00,
2013-03-07 00:19:00,40.1,38.0,30.03,SW,218,0.0,0.0,92,0.00,,,0.00,WeatherCatV1.14B232,2013-03-07 08:19:00,
2013-03-07 00:24:00,40.0,37.9,30.03,SW,218,0.0,0.0,92,0.00,,,0.00,WeatherCatV1.14B232,2013-03-07 08:24:00,
2013-03-07 00:29:00,40.0,37.9,30.03,SW,218,0.0,0.0,92,0.00,,,0.00,WeatherCatV1.14B232,2013-03-07 08:29:00,
2013-03-07 00:34:00,39.9,37.8,30.03,SW,218,0.0,0.0,92,0.00,,,0.00,WeatherCatV1.14B232,2013-03-07 08:34:00,
2013-03-07 00:39:00,39.8,37.7,30.02,SW,218,0.0,0.0,92,0.00,,,0.00,WeatherCatV1.14B232,2013-03-07 08:39:00,
2013-03-07 00:44:00,39.7,37.6,30.02,SW,218,0.0,0.0,92,0.00,,,0.00,WeatherCatV1.14B232,2013-03-07 08:44:00,
2013-03-07 00:49:00,39.7,37.6,30.02,SW,218,0.0,0.0,92,0.00,,,0.00,WeatherCatV1.14B232,2013-03-07 08:49:00,
2013-03-07 00:54:00,39.8,37.7,30.02,SW,217,0.0,0.0,92,0.00,,,0.00,WeatherCatV1.14B232,2013-03-07 08:54:00,
2013-03-07 00:59:00,39.7,37.6,30.02,SW,217,0.0,0.0,92,0.00,,,0.00,WeatherCatV1.14B232,2013-03-07 08:59:00,
2013-03-07 01:04:00,39.6,37.5,30.02,SW,217,0.0,0.0,92,0.00,,,0.00,WeatherCatV1.14B232,2013-03-07 09:04:00,
2013-03-07 01:09:00,39.5,37.6,30.02,SW,217,0.0,0.0,93,0.00,,,0.00,WeatherCatV1.14B232,2013-03-07 09:09:00,
2013-03-07 01:14:00,39.4,37.5,30.02,SW,217,0.0,0.0,93,0.00,,,0.00,WeatherCatV1.14B232,2013-03-07 09:14:00,
2013-03-07 01:19:00,39.4,37.5,30.02,SW,217,0.0,0.0,93,0.00,,,0.00,WeatherCatV1.14B232,2013-03-07 09:19:00,
2013-03-07 01:24:00,39.4,37.5,30.02,SW,217,0.0,0.0,93,0.00,,,0.00,WeatherCatV1.14B232,2013-03-07 09:24:00,
2013-03-07 01:29:00,39.7,37.8,30.02,SW,217,0.0,0.0,93,0.00,,,0.00,WeatherCatV1.14B232,2013-03-07 09:29:00,
2013-03-07 01:34:00,40.1,38.0,30.02,SW,217,0.0,0.0,92,0.00,,,0.00,WeatherCatV1.14B232,2013-03-07 09:34:00,
2013-03-07 01:39:00,40.3,38.2,30.02,SW,217,0.0,0.0,92,0.00,,,0.00,WeatherCatV1.14B232,2013-03-07 09:39:00,
2013-03-07 01:44:00,40.3,37.9,30.02,SW,217,0.0,0.0,91,0.00,,,0.00,WeatherCatV1.14B232,2013-03-07 09:44:00,
2013-03-07 01:49:00,40.3,37.9,30.02,SW,217,0.0,0.0,91,0.00,,,0.00,WeatherCatV1.14B232,2013-03-07 09:49:00,
2013-03-07 01:54:00,40.3,37.9,30.02,SW,217,0.0,0.0,91,0.00,,,0.00,WeatherCatV1.14B232,2013-03-07 09:54:00,
2013-03-07 01:59:00,40.1,37.7,30.02,SW,217,0.0,0.0,91,0.00,,,0.00,WeatherCatV1.14B232,2013-03-07 09:59:00,
2013-03-07 02:04:00,40.0,37.9,30.02,SW,217,0.0,0.0,92,0.00,,,0.00,WeatherCatV1.14B232,2013-03-07 10:04:00,
2013-03-07 02:09:00,39.9,37.8,30.02,SW,217,0.0,0.0,92,0.00,,,0.00,WeatherCatV1.14B232,2013-03-07 10:09:00,
2013-03-07 02:14:00,39.9,38.0,30.01,SW,217,0.0,0.0,93,0.00,,,0.00,WeatherCatV1.14B232,2013-03-07 10:14:00,
2013-03-07 02:19:00,39.8,37.9,30.01,SW,217,0.0,0.0,93,0.00,,,0.00,WeatherCatV1.14B232,2013-03-07 10:19:00,
2013-03-07 02:24:00,39.8,37.7,30.01,SW,217,0.0,0.0,92,0.00,,,0.00,WeatherCatV1.14B232,2013-03-07 10:24:00,
2013-03-07 02:29:00,39.8,37.7,30.00,SW,217,0.0,0.0,92,0.00,,,0.00,WeatherCatV1.14B232,2013-03-07 10:29:00,
2013-03-07 02:34:00,39.7,37.6,30.01,SW,217,0.0,0.0,92,0.00,,,0.00,WeatherCatV1.14B232,2013-03-07 10:34:00,
2013-03-07 02:39:00,39.7,37.8,30.01,SW,217,0.0,0.0,93,0.00,,,0.00,WeatherCatV1.14B232,2013-03-07 10:39:00,
2013-03-07 02:44:00,39.6,37.5,30.00,SW,217,0.0,0.0,92,0.00,,,0.00,WeatherCatV1.14B232,2013-03-07 10:44:00,
2013-03-07 02:49:00,39.6,37.5,30.00,SW,217,0.0,0.0,92,0.00,,,0.00,WeatherCatV1.14B232,2013-03-07 10:49:00,
2013-03-07 02:54:00,39.6,37.7,30.00,SW,217,0.0,0.0,93,0.00,,,0.00,WeatherCatV1.14B232,2013-03-07 10:54:00,
2013-03-07 02:59:00,39.5,37.6,30.01,SW,217,0.0,0.0,93,0.00,,,0.00,WeatherCatV1.14B232,2013-03-07 10:59:00,
2013-03-07 03:04:00,39.4,37.5,30.00,SW,217,0.0,0.0,93,0.00,,,0.00,WeatherCatV1.14B232,2013-03-07 11:04:00,
2013-03-07 03:09:00,39.3,37.4,30.00,SW,217,0.0,0.0,93,0.00,,,0.00,WeatherCatV1.14B232,2013-03-07 11:09:00,
2013-03-07 03:14:00,39.5,37.9,30.00,SW,217,0.0,0.0,94,0.00,,,0.00,WeatherCatV1.14B232,2013-03-07 11:14:00,
2013-03-07 03:19:00,39.5,37.6,30.00,SW,217,0.0,0.0,93,0.00,,,0.00,WeatherCatV1.14B232,2013-03-07 11:19:00,
2013-03-07 03:24:00,39.4,37.5,30.00,SW,217,0.0,0.0,93,0.00,,,0.00,WeatherCatV1.14B232,2013-03-07 11:24:00,
2013-03-07 03:29:00,39.3,37.4,30.00,SW,217,0.0,0.0,93,0.00,,,0.00,WeatherCatV1.14B232,2013-03-07 11:29:00,
2013-03-07 03:34:00,39.3,37.4,29.99,SW,217,0.0,0.0,93,0.00,,,0.00,WeatherCatV1.14B232,2013-03-07 11:34:00,
2013-03-07 03:39:00,39.1,37.2,29.99,SW,217,0.0,0.0,93,0.00,,,0.00,WeatherCatV1.14B232,2013-03-07 11:39:00,
2013-03-07 03:44:00,38.9,37.1,29.99,SW,217,0.0,0.0,93,0.00,,,0.00,WeatherCatV1.14B232,2013-03-07 11:44:00,
2013-03-07 03:49:00,38.8,37.0,29.99,SW,217,0.0,0.0,93,0.00,,,0.00,WeatherCatV1.14B232,2013-03-07 11:49:00,
2013-03-07 03:54:00,38.6,36.8,29.99,SW,217,0.0,0.0,93,0.00,,,0.00,WeatherCatV1.14B232,2013-03-07 11:54:00,
2013-03-07 03:59:00,38.5,36.9,29.99,SW,217,0.0,0.0,94,0.00,,,0.00,WeatherCatV1.14B232,2013-03-07 11:59:00,
2013-03-07 04:04:00,38.4,36.8,29.99,SW,217,0.0,0.0,94,0.00,,,0.00,WeatherCatV1.14B232,2013-03-07 12:04:00,
2013-03-07 04:09:00,38.6,37.0,29.99,SW,217,0.0,0.0,94,0.00,,,0.00,WeatherCatV1.14B232,2013-03-07 12:09:00,
2013-03-07 04:14:00,38.7,37.1,30.00,SW,217,0.0,0.0,94,0.00,,,0.00,WeatherCatV1.14B232,2013-03-07 12:14:00,
2013-03-07 04:19:00,38.6,37.0,29.99,SW,217,0.0,0.0,94,0.00,,,0.00,WeatherCatV1.14B232,2013-03-07 12:19:00,
2013-03-07 04:24:00,38.5,36.9,29.99,SW,217,0.0,0.0,94,0.00,,,0.00,WeatherCatV1.14B232,2013-03-07 12:24:00,
2013-03-07 04:29:00,38.5,36.9,29.99,SW,217,0.0,0.0,94,0.00,,,0.00,WeatherCatV1.14B232,2013-03-07 12:29:00,
2013-03-07 04:34:00,38.5,36.9,29.99,SW,217,0.0,0.0,94,0.00,,,0.00,WeatherCatV1.14B232,2013-03-07 12:34:00,
2013-03-07 04:39:00,38.7,37.4,29.99,SW,217,0.0,0.0,95,0.00,,,0.00,WeatherCatV1.14B232,2013-03-07 12:39:00,
2013-03-07 04:44:00,38.8,37.2,29.99,SW,217,0.0,0.0,94,0.00,,,0.00,WeatherCatV1.14B232,2013-03-07 12:44:00,
2013-03-07 04:48:00,38.9,37.3,29.99,SW,217,0.0,0.0,94,0.00,,,0.00,WeatherCatV1.14B232,2013-03-07 12:48:00,
2013-03-07 04:53:00,38.9,37.1,29.99,SW,217,0.0,0.0,93,0.00,,,0.00,WeatherCatV1.14B232,2013-03-07 12:53:00,
2013-03-07 04:58:00,39.0,37.4,29.99,SW,217,0.0,0.0,94,0.00,,,0.00,WeatherCatV1.14B232,2013-03-07 12:58:00,
2013-03-07 05:03:00,39.1,37.2,29.99,SW,217,0.0,0.0,93,0.00,,,0.00,WeatherCatV1.14B232,2013-03-07 13:03:00,
2013-03-07 05:08:00,38.9,37.1,29.99,SW,217,0.0,0.0,93,0.00,,,0.00,WeatherCatV1.14B232,2013-03-07 13:08:00,
2013-03-07 05:13:00,38.7,37.1,29.99,SW,217,0.0,0.0,94,0.00,,,0.00,WeatherCatV1.14B232,2013-03-07 13:13:00,
2013-03-07 05:18:00,38.7,37.1,29.99,SW,217,0.0,0.0,94,0.00,,,0.00,WeatherCatV1.14B232,2013-03-07 13:18:00,
2013-03-07 05:23:00,38.7,37.1,29.98,SW,217,0.0,0.0,94,0.00,,,0.00,WeatherCatV1.14B232,2013-03-07 13:23:00,
2013-03-07 05:28:00,38.8,37.2,29.99,SW,217,0.0,0.0,94,0.00,,,0.00,WeatherCatV1.14B232,2013-03-07 13:28:00,
2013-03-07 05:33:00,39.1,37.5,29.99,SW,217,0.0,0.0,94,0.00,,,0.00,WeatherCatV1.14B232,2013-03-07 13:33:00,
2013-03-07 05:38:00,39.2,37.3,29.98,SW,217,0.0,0.0,93,0.00,,,0.00,WeatherCatV1.14B232,2013-03-07 13:38:00,
2013-03-07 05:43:00,39.1,37.2,29.98,SW,217,0.0,0.0,93,0.00,,,0.00,WeatherCatV1.14B232,2013-03-07 13:43:00,
2013-03-07 05:48:00,38.9,37.1,29.98,SW,217,0.0,0.0,93,0.00,,,0.00,WeatherCatV1.14B232,2013-03-07 13:48:00,
2013-03-07 05:53:00,38.7,36.9,29.98,SW,217,0.0,0.0,93,0.00,,,0.00,WeatherCatV1.14B232,2013-03-07 13:53:00,
2013-03-07 05:58:00,38.8,37.2,29.99,SW,217,0.0,0.0,94,0.00,,,0.00,WeatherCatV1.14B232,2013-03-07 13:58:00,
2013-03-07 06:03:00,38.9,37.1,29.99,SW,217,0.0,0.0,93,0.00,,,0.00,WeatherCatV1.14B232,2013-03-07 14:03:00,
2013-03-07 06:08:00,38.9,37.1,29.99,SW,217,0.0,0.0,93,0.00,,,0.00,WeatherCatV1.14B232,2013-03-07 14:08:00,
2013-03-07 06:13:00,38.8,37.0,29.99,SW,217,0.0,0.0,93,0.00,,,0.00,WeatherCatV1.14B232,2013-03-07 14:13:00,
2013-03-07 06:18:00,38.9,37.1,29.99,SW,217,0.0,0.0,93,0.00,,,0.00,WeatherCatV1.14B232,2013-03-07 14:18:00,
2013-03-07 06:23:00,38.8,37.0,29.98,SW,217,0.0,0.0,93,0.00,,,0.00,WeatherCatV1.14B232,2013-03-07 14:23:00,
2013-03-07 06:28:00,38.7,37.1,29.98,SW,217,0.0,0.0,94,0.00,,,0.00,WeatherCatV1.14B232,2013-03-07 14:28:00,
2013-03-07 06:33:00,38.7,37.1,29.98,SW,217,0.0,0.0,94,0.00,,,0.00,WeatherCatV1.14B232,2013-03-07 14:33:00,
2013-03-07 06:38:00,38.6,37.0,29.98,SW,217,0.0,0.0,94,0.00,,,0.00,WeatherCatV1.14B232,2013-03-07 14:38:00,
2013-03-07 06:43:00,38.6,37.0,29.98,SW,217,0.0,0.0,94,0.00,,,0.00,WeatherCatV1.14B232,2013-03-07 14:43:00,
2013-03-07 06:48:00,38.7,37.1,29.98,SW,217,0.0,0.0,94,0.00,,,0.00,WeatherCatV1.14B232,2013-03-07 14:48:00,
2013-03-07 06:53:00,38.9,37.3,29.98,SW,217,0.0,0.0,94,0.00,,,0.00,WeatherCatV1.14B232,2013-03-07 14:53:00,
2013-03-07 06:58:00,39.0,37.2,29.98,SW,217,0.0,0.0,93,0.00,,,0.00,WeatherCatV1.14B232,2013-03-07 14:58:00,
2013-03-07 07:03:00,39.0,37.2,29.98,SW,217,0.0,0.0,93,0.00,,,0.00,WeatherCatV1.14B232,2013-03-07 15:03:00,
2013-03-07 07:08:00,39.0,37.4,29.98,SW,217,0.0,0.0,94,0.00,,,0.00,WeatherCatV1.14B232,2013-03-07 15:08:00,
2013-03-07 07:13:00,39.0,37.4,29.98,SW,217,0.0,0.0,94,0.00,,,0.00,WeatherCatV1.14B232,2013-03-07 15:13:00,
2013-03-07 07:18:00,39.1,37.5,29.98,SW,217,0.0,0.0,94,0.00,,,0.00,WeatherCatV1.14B232,2013-03-07 15:18:00,
2013-03-07 07:23:00,39.3,37.7,29.98,SW,217,0.0,0.0,94,0.00,,,0.00,WeatherCatV1.14B232,2013-03-07 15:23:00,
2013-03-07 07:28:00,39.4,37.8,29.98,SW,217,0.0,0.0,94,0.00,,,0.00,WeatherCatV1.14B232,2013-03-07 15:28:00,
2013-03-07 07:33:00,39.7,38.1,29.98,SW,217,0.0,0.0,94,0.00,,,0.00,WeatherCatV1.14B232,2013-03-07 15:33:00,
2013-03-07 07:38:00,39.9,38.0,29.98,SW,217,0.0,0.0,93,0.00,,,0.00,WeatherCatV1.14B232,2013-03-07 15:38:00,
2013-03-07 07:39:00,40.0,38.1,29.98,SW,217,0.0,0.0,93,0.00,,,0.00,WeatherCatV1.14B232,2013-03-07 15:39:00,
2013-03-07 07:55:00,41.5,39.1,29.98,SE,124,0.0,0.0,91,0.00,,,0.00,WeatherCatV1.14B232,2013-03-07 15:55:00,
2013-03-07 08:00:00,41.8,39.1,29.98,SE,125,0.0,0.0,90,0.00,,,0.00,WeatherCatV1.14B232,2013-03-07 16:00:00,
2013-03-07 08:02:00,42.0,39.3,29.98,SE,125,0.0,0.0,90,0.00,,,0.00,WeatherCatV1.14B232,2013-03-07 16:02:00,
2013-03-07 08:07:00,42.6,39.6,29.98,SE,124,0.0,0.0,89,0.00,,,0.00,WeatherCatV1.14B232,2013-03-07 16:07:00,
2013-03-07 08:12:00,43.8,40.5,29.98,SE,126,0.0,0.0,88,0.00,,,0.00,WeatherCatV1.14B232,2013-03-07 16:12:00,
2013-03-07 08:17:00,45.0,41.1,29.98,ESE,107,0.0,3.0,86,0.00,,,0.00,WeatherCatV1.14B232,2013-03-07 16:17:00,
2013-03-07 08:22:00,45.6,40.4,29.98,SE,130,0.0,1.0,82,0.00,,,0.00,WeatherCatV1.14B232,2013-03-07 16:22:00,
2013-03-07 08:27:00,46.2,40.4,29.98,SE,132,0.0,3.0,80,0.00,,,0.00,WeatherCatV1.14B232,2013-03-07 16:27:00,
2013-03-07 08:32:00,47.1,40.6,29.98,East,100,1.0,1.0,78,0.00,,,0.00,WeatherCatV1.14B232,2013-03-07 16:32:00,
2013-03-07 08:37:00,47.3,40.5,29.98,NNW,336,1.0,2.0,77,0.00,,,0.00,WeatherCatV1.14B232,2013-03-07 16:37:00,
2013-03-07 08:42:00,47.4,40.6,29.98,East,101,0.0,0.0,77,0.00,,,0.00,WeatherCatV1.14B232,2013-03-07 16:42:00,
2013-03-07 08:47:00,47.9,40.4,29.98,NE,37,0.0,1.0,75,0.00,,,0.00,WeatherCatV1.14B232,2013-03-07 16:47:00,
2013-03-07 08:52:00,48.3,40.7,29.98,ENE,68,0.0,2.0,75,0.00,,,0.00,WeatherCatV1.14B232,2013-03-07 16:52:00,
2013-03-07 08:57:00,48.6,40.0,29.98,ENE,65,0.0,1.0,72,0.00,,,0.00,WeatherCatV1.14B232,2013-03-07 16:57:00,
2013-03-07 09:02:00,48.9,39.9,29.97,ESE,105,0.0,0.0,71,0.00,,,0.00,WeatherCatV1.14B232,2013-03-07 17:02:00,
2013-03-07 09:07:00,49.4,39.7,29.98,ESE,107,0.0,1.0,69,0.00,,,0.00,WeatherCatV1.14B232,2013-03-07 17:07:00,
2013-03-07 09:12:00,49.4,39.3,29.98,ENE,72,0.0,2.0,68,0.00,,,0.00,WeatherCatV1.14B232,2013-03-07 17:12:00,
2013-03-07 09:17:00,49.4,39.3,29.98,ENE,69,0.0,2.0,68,0.00,,,0.00,WeatherCatV1.14B232,2013-03-07 17:17:00,
2013-03-07 09:22:00,49.7,39.6,29.98,ENE,58,1.0,1.0,68,0.00,,,0.00,WeatherCatV1.14B232,2013-03-07 17:22:00,
2013-03-07 09:27:00,50.1,40.0,29.98,NE,36,0.0,1.0,68,0.00,,,0.00,WeatherCatV1.14B232,2013-03-07 17:27:00,
2013-03-07 09:32:00,50.3,40.5,29.98,NNW,333,1.0,1.0,69,0.00,,,0.00,WeatherCatV1.14B232,2013-03-07 17:32:00,
2013-03-07 09:37:00,50.5,40.7,29.98,NNW,344,0.0,0.0,69,0.00,,,0.00,WeatherCatV1.14B232,2013-03-07 17:37:00,
2013-03-07 09:42:00,50.7,41.6,29.98,ENE,71,0.0,1.0,71,0.00,,,0.00,WeatherCatV1.14B232,2013-03-07 17:42:00,
2013-03-07 09:47:00,50.9,41.8,29.97,NNE,19,0.0,0.0,71,0.00,,,0.00,WeatherCatV1.14B232,2013-03-07 17:47:00,
2013-03-07 09:52:00,50.9,42.2,29.97,ENE,61,0.0,2.0,72,0.00,,,0.00,WeatherCatV1.14B232,2013-03-07 17:52:00,
2013-03-07 09:57:00,50.8,42.8,29.97,ESE,109,0.0,1.0,74,0.00,,,0.00,WeatherCatV1.14B232,2013-03-07 17:57:00,
2013-03-07 10:02:00,51.0,42.7,29.97,East,93,0.0,2.0,73,0.00,,,0.00,WeatherCatV1.14B232,2013-03-07 18:02:00,
2013-03-07 10:07:00,51.6,42.9,29.97,ESE,112,0.0,1.0,72,0.00,,,0.00,WeatherCatV1.14B232,2013-03-07 18:07:00,
2013-03-07 10:12:00,51.9,43.2,29.97,NNW,348,0.0,0.0,72,0.00,,,0.00,WeatherCatV1.14B232,2013-03-07 18:12:00,
2013-03-07 10:17:00,52.1,42.2,29.97,ENE,78,0.0,1.0,69,0.00,,,0.00,WeatherCatV1.14B232,2013-03-07 18:17:00,
2013-03-07 10:22:00,52.2,42.3,29.97,East,80,0.0,3.0,69,0.00,,,0.00,WeatherCatV1.14B232,2013-03-07 18:22:00,
2013-03-07 10:27:00,52.5,41.9,29.97,SSE,151,0.0,2.0,67,0.00,,,0.00,WeatherCatV1.14B232,2013-03-07 18:27:00,
2013-03-07 10:32:00,53.2,42.1,29.97,SSE,157,1.0,1.0,66,0.00,,,0.00,WeatherCatV1.14B232,2013-03-07 18:32:00,
2013-03-07 10:37:00,53.9,42.4,29.97,North,350,1.0,3.0,65,0.00,,,0.00,WeatherCatV1.14B232,2013-03-07 18:37:00,
2013-03-07 10:42:00,54.1,42.2,29.96,West,269,1.0,1.0,64,0.00,,,0.00,WeatherCatV1.14B232,2013-03-07 18:42:00,
2013-03-07 10:47:00,54.4,42.1,29.96,WNW,296,0.0,0.0,63,0.00,,,0.00,WeatherCatV1.14B232,2013-03-07 18:47:00,
2013-03-07 10:52:00,54.6,41.8,29.96,West,259,1.0,1.0,62,0.00,,,0.00,WeatherCatV1.14B232,2013-03-07 18:52:00,
2013-03-07 10:57:00,54.5,41.7,29.96,NW,307,0.0,1.0,62,0.00,,,0.00,WeatherCatV1.14B232,2013-03-07 18:57:00,
2013-03-07 11:02:00,54.7,41.1,29.96,WNW,299,0.0,0.0,60,0.00,,,0.00,WeatherCatV1.14B232,2013-03-07 19:02:00,
2013-03-07 11:07:00,54.8,39.9,29.96,WSW,253,0.0,1.0,57,0.00,,,0.00,WeatherCatV1.14B232,2013-03-07 19:07:00,
2013-03-07 11:12:00,54.7,40.2,29.96,East,80,0.0,3.0,58,0.00,,,0.00,WeatherCatV1.14B232,2013-03-07 19:12:00,
2013-03-07 11:17:00,55.0,40.0,29.96,SE,129,0.0,0.0,57,0.00,,,0.00,WeatherCatV1.14B232,2013-03-07 19:17:00,
2013-03-07 11:22:00,55.4,40.0,29.95,ENE,76,0.0,1.0,56,0.00,,,0.00,WeatherCatV1.14B232,2013-03-07 19:22:00,
2013-03-07 11:27:00,55.9,40.0,29.95,SSE,159,0.0,4.0,55,0.00,,,0.00,WeatherCatV1.14B232,2013-03-07 19:27:00,
2013-03-07 11:31:00,56.0,40.5,29.95,NNE,20,0.0,1.0,56,0.00,,,0.00,WeatherCatV1.14B232,2013-03-07 19:31:00,
2013-03-07 11:36:00,56.9,42.3,29.95,SSE,149,1.0,3.0,58,0.00,,,0.00,WeatherCatV1.14B232,2013-03-07 19:36:00,
2013-03-07 11:41:00,57.4,39.9,29.95,SE,125,0.0,1.0,52,0.00,,,0.00,WeatherCatV1.14B232,2013-03-07 19:41:00,
2013-03-07 11:46:00,57.9,40.9,29.94,SSE,153,0.0,0.0,53,0.00,,,0.00,WeatherCatV1.14B232,2013-03-07 19:46:00,
2013-03-07 11:51:00,57.8,40.3,29.94,NNE,32,4.0,5.0,52,0.00,,,0.00,WeatherCatV1.14B232,2013-03-07 19:51:00,
2013-03-07 11:56:00,56.8,39.4,29.94,North,355,3.0,3.0,52,0.00,,,0.00,WeatherCatV1.14B232,2013-03-07 19:56:00,
2013-03-07 12:01:00,56.5,39.1,29.94,ESE,106,1.0,3.0,52,0.00,,,0.00,WeatherCatV1.14B232,2013-03-07 20:01:00,
2013-03-07 12:06:00,57.1,39.1,29.94,ENE,64,0.0,4.0,51,0.00,,,0.00,WeatherCatV1.14B232,2013-03-07 20:06:00,
2013-03-07 12:11:00,57.6,40.1,29.93,WSW,242,0.0,0.0,52,0.00,,,0.00,WeatherCatV1.14B232,2013-03-07 20:11:00,
2013-03-07 12:16:00,58.5,39.4,29.93,SE,141,0.0,1.0,49,0.00,,,0.00,WeatherCatV1.14B232,2013-03-07 20:16:00,
2013-03-07 12:21:00,58.7,38.5,29.93,ESE,106,0.0,1.0,47,0.00,,,0.00,WeatherCatV1.14B232,2013-03-07 20:21:00,
2013-03-07 12:26:00,59.7,41.0,29.93,SE,142,1.0,4.0,50,0.00,,,0.00,WeatherCatV1.14B232,2013-03-07 20:26:00,
2013-03-07 12:31:00,59.5,40.3,29.93,NW,310,0.0,1.0,49,0.00,,,0.00,WeatherCatV1.14B232,2013-03-07 20:31:00,
2013-03-07 12:36:00,59.1,40.0,29.93,East,79,0.0,1.0,49,0.00,,,0.00,WeatherCatV1.14B232,2013-03-07 20:36:00,
2013-03-07 12:41:00,59.7,38.3,29.92,North,9,0.0,1.0,45,0.00,,,0.00,WeatherCatV1.14B232,2013-03-07 20:41:00,
2013-03-07 12:46:00,59.9,38.5,29.92,ENE,69,0.0,0.0,45,0.00,,,0.00,WeatherCatV1.14B232,2013-03-07 20:46:00,
2013-03-07 12:51:00,59.7,37.8,29.92,ESE,119,0.0,3.0,44,0.00,,,0.00,WeatherCatV1.14B232,2013-03-07 20:51:00,
2013-03-07 12:56:00,60.1,39.8,29.92,SW,232,1.0,4.0,47,0.00,,,0.00,WeatherCatV1.14B232,2013-03-07 20:56:00,
2013-03-07 13:01:00,58.6,39.5,29.91,West,271,1.0,4.0,49,0.00,,,0.00,WeatherCatV1.14B232,2013-03-07 21:01:00,
2013-03-07 13:06:00,58.2,39.1,29.91,WSW,255,1.0,1.0,49,0.00,,,0.00,WeatherCatV1.14B232,2013-03-07 21:06:00,
2013-03-07 13:11:00,58.3,38.7,29.91,West,275,0.0,1.0,48,0.00,,,0.00,WeatherCatV1.14B232,2013-03-07 21:11:00,
2013-03-07 13:16:00,58.4,38.8,29.91,NW,309,2.0,3.0,48,0.00,,,0.00,WeatherCatV1.14B232,2013-03-07 21:16:00,
2013-03-07 13:21:00,58.3,39.2,29.90,NW,311,1.0,4.0,49,0.00,,,0.00,WeatherCatV1.14B232,2013-03-07 21:21:00,
2013-03-07 13:26:00,58.2,39.1,29.90,WNW,292,1.0,3.0,49,0.00,,,0.00,WeatherCatV1.14B232,2013-03-07 21:26:00,
2013-03-07 13:31:00,58.4,38.8,29.90,ENE,69,0.0,1.0,48,0.00,,,0.00,WeatherCatV1.14B232,2013-03-07 21:31:00,
2013-03-07 13:36:00,58.1,39.0,29.90,WNW,286,1.0,2.0,49,0.00,,,0.00,WeatherCatV1.14B232,2013-03-07 21:36:00,
2013-03-07 13:41:00,57.8,38.8,29.89,WSW,251,0.0,2.0,49,0.00,,,0.00,WeatherCatV1.14B232,2013-03-07 21:41:00,
2013-03-07 13:46:00,58.1,39.6,29.89,NW,314,0.0,6.0,50,0.00,,,0.00,WeatherCatV1.14B232,2013-03-07 21:46:00,
2013-03-07 13:51:00,58.5,37.2,29.89,ESE,107,0.0,2.0,45,0.00,,,0.00,WeatherCatV1.14B232,2013-03-07 21:51:00,
2013-03-07 13:56:00,58.8,37.5,29.89,SSE,157,0.0,3.0,45,0.00,,,0.00,WeatherCatV1.14B232,2013-03-07 21:56:00,
2013-03-07 14:01:00,58.9,35.8,29.89,SE,138,0.0,1.0,42,0.00,,,0.00,WeatherCatV1.14B232,2013-03-07 22:01:00,
2013-03-07 14:06:00,58.9,36.4,29.89,SE,144,0.0,2.0,43,0.00,,,0.00,WeatherCatV1.14B232,2013-03-07 22:06:00,
2013-03-07 14:11:00,59.0,35.3,29.89,SW,225,0.0,2.0,41,0.00,,,0.00,WeatherCatV1.14B232,2013-03-07 22:11:00,
2013-03-07 14:16:00,58.6,37.9,29.89,East,86,1.0,1.0,46,0.00,,,0.00,WeatherCatV1.14B232,2013-03-07 22:16:00,
2013-03-07 14:21:00,58.5,37.2,29.89,WSW,244,0.0,0.0,45,0.00,,,0.00,WeatherCatV1.14B232,2013-03-07 22:21:00,
2013-03-07 14:26:00,58.4,38.2,29.89,NNW,336,0.0,1.0,47,0.00,,,0.00,WeatherCatV1.14B232,2013-03-07 22:26:00,
2013-03-07 14:31:00,58.2,38.1,29.89,SSW,209,0.0,0.0,47,0.00,,,0.00,WeatherCatV1.14B232,2013-03-07 22:31:00,
2013-03-07 14:36:00,58.1,39.0,29.89,WSW,254,0.0,1.0,49,0.00,,,0.00,WeatherCatV1.14B232,2013-03-07 22:36:00,
2013-03-07 14:41:00,57.6,38.6,29.89,WNW,286,0.0,1.0,49,0.00,,,0.00,WeatherCatV1.14B232,2013-03-07 22:41:00,
2013-03-07 14:46:00,57.6,39.1,29.89,NW,312,0.0,0.0,50,0.00,,,0.00,WeatherCatV1.14B232,2013-03-07 22:46:00,
2013-03-07 14:51:00,57.6,38.1,29.89,West,265,1.0,2.0,48,0.00,,,0.00,WeatherCatV1.14B232,2013-03-07 22:51:00,
2013-03-07 14:56:00,57.2,40.2,29.88,West,273,1.0,2.0,53,0.00,,,0.00,WeatherCatV1.14B232,2013-03-07 22:56:00,
2013-03-07 15:01:00,56.8,40.3,29.89,West,259,2.0,2.0,54,0.00,,,0.00,WeatherCatV1.14B232,2013-03-07 23:01:00,
2013-03-07 15:06:00,56.4,41.8,29.89,WSW,239,1.0,3.0,58,0.00,,,0.00,WeatherCatV1.14B232,2013-03-07 23:06:00,
2013-03-07 15:11:00,56.0,42.7,29.89,West,281,1.0,1.0,61,0.00,,,0.00,WeatherCatV1.14B232,2013-03-07 23:11:00,
2013-03-07 15:16:00,55.7,42.5,29.89,West,273,1.0,2.0,61,0.00,,,0.00,WeatherCatV1.14B232,2013-03-07 23:16:00,
2013-03-07 15:21:00,55.5,42.3,29.89,WNW,289,1.0,3.0,61,0.00,,,0.00,WeatherCatV1.14B232,2013-03-07 23:21:00,
2013-03-07 15:26:00,55.3,42.5,29.89,WSW,250,0.0,2.0,62,0.00,,,0.00,WeatherCatV1.14B232,2013-03-07 23:26:00,
2013-03-07 15:31:00,55.1,42.7,29.89,WNW,291,1.0,2.0,63,0.00,,,0.00,WeatherCatV1.14B232,2013-03-07 23:31:00,
2013-03-07 15:36:00,55.1,42.7,29.89,WSW,252,2.0,2.0,63,0.00,,,0.00,WeatherCatV1.14B232,2013-03-07 23:36:00,
2013-03-07 15:41:00,55.1,42.7,29.88,West,269,1.0,2.0,63,0.00,,,0.00,WeatherCatV1.14B232,2013-03-07 23:41:00,
2013-03-07 15:46:00,55.2,42.8,29.88,WNW,292,0.0,1.0,63,0.00,,,0.00,WeatherCatV1.14B232,2013-03-07 23:46:00,
2013-03-07 15:51:00,55.3,42.5,29.88,West,279,1.0,1.0,62,0.00,,,0.00,WeatherCatV1.14B232,2013-03-07 23:51:00,
2013-03-07 15:56:00,55.0,42.2,29.88,West,271,0.0,1.0,62,0.00,,,0.00,WeatherCatV1.14B232,2013-03-07 23:56:00,
2013-03-07 16:01:00,54.8,42.0,29.88,NW,321,1.0,3.0,62,0.00,,,0.00,WeatherCatV1.14B232,2013-03-08 00:01:00,
2013-03-07 16:06:00,54.7,41.9,29.88,WNW,299,0.0,3.0,62,0.00,,,0.00,WeatherCatV1.14B232,2013-03-08 00:06:00,
2013-03-07 16:11:00,54.8,41.6,29.88,NW,309,1.0,1.0,61,0.00,,,0.00,WeatherCatV1.14B232,2013-03-08 00:11:00,
2013-03-07 16:16:00,54.8,42.4,29.88,West,270,0.0,0.0,63,0.00,,,0.00,WeatherCatV1.14B232,2013-03-08 00:16:00,
2013-03-07 16:21:00,54.8,42.0,29.88,WNW,285,0.0,1.0,62,0.00,,,0.00,WeatherCatV1.14B232,2013-03-08 00:21:00,
2013-03-07 16:26:00,54.8,42.0,29.88,WNW,302,0.0,1.0,62,0.00,,,0.00,WeatherCatV1.14B232,2013-03-08 00:26:00,
2013-03-07 16:31:00,54.8,42.9,29.88,West,261,1.0,1.0,64,0.00,,,0.00,WeatherCatV1.14B232,2013-03-08 00:31:00,
2013-03-07 16:36:00,54.7,43.2,29.88,WNW,300,0.0,0.0,65,0.00,,,0.00,WeatherCatV1.14B232,2013-03-08 00:36:00,
2013-03-07 16:41:00,54.6,43.5,29.88,West,267,2.0,3.0,66,0.00,,,0.00,WeatherCatV1.14B232,2013-03-08 00:41:00,
2013-03-07 16:46:00,54.4,43.3,29.88,WSW,253,0.0,0.0,66,0.00,,,0.00,WeatherCatV1.14B232,2013-03-08 00:46:00,
2013-03-07 16:51:00,54.3,42.8,29.88,ENE,57,0.0,1.0,65,0.00,,,0.00,WeatherCatV1.14B232,2013-03-08 00:51:00,
2013-03-07 16:56:00,54.1,41.0,29.88,West,259,0.0,1.0,61,0.00,,,0.00,WeatherCatV1.14B232,2013-03-08 00:56:00,
2013-03-07 17:01:00,53.9,40.8,29.88,SSW,211,0.0,1.0,61,0.00,,,0.00,WeatherCatV1.14B232,2013-03-08 01:01:00,
2013-03-07 17:06:00,53.7,40.6,29.88,SW,228,0.0,0.0,61,0.00,,,0.00,WeatherCatV1.14B232,2013-03-08 01:06:00,
2013-03-07 17:11:00,53.6,40.1,29.88,WSW,258,0.0,1.0,60,0.00,,,0.00,WeatherCatV1.14B232,2013-03-08 01:11:00,
2013-03-07 17:16:00,53.4,39.9,29.88,WSW,253,0.0,1.0,60,0.00,,,0.00,WeatherCatV1.14B232,2013-03-08 01:16:00,
2013-03-07 17:21:00,53.2,40.5,29.88,WSW,254,0.0,0.0,62,0.00,,,0.00,WeatherCatV1.14B232,2013-03-08 01:21:00,
2013-03-07 17:26:00,53.0,40.3,29.88,WSW,254,0.0,0.0,62,0.00,,,0.00,WeatherCatV1.14B232,2013-03-08 01:26:00,
2013-03-07 17:31:00,52.8,40.6,29.88,NE,36,0.0,0.0,63,0.00,,,0.00,WeatherCatV1.14B232,2013-03-08 01:31:00,
2013-03-07 17:36:00,52.6,40.4,29.89,WSW,245,0.0,0.0,63,0.00,,,0.00,WeatherCatV1.14B232,2013-03-08 01:36:00,
2013-03-07 17:41:00,52.4,40.6,29.89,NW,315,0.0,1.0,64,0.00,,,0.00,WeatherCatV1.14B232,2013-03-08 01:41:00,
2013-03-07 17:46:00,52.3,40.5,29.89,WSW,243,3.0,3.0,64,0.00,,,0.00,WeatherCatV1.14B232,2013-03-08 01:46:00,
2013-03-07 17:51:00,52.2,40.4,29.89,WSW,252,0.0,0.0,64,0.00,,,0.00,WeatherCatV1.14B232,2013-03-08 01:51:00,
2013-03-07 17:56:00,52.1,40.3,29.88,WSW,241,0.0,0.0,64,0.00,,,0.00,WeatherCatV1.14B232,2013-03-08 01:56:00,
2013-03-07 18:01:00,52.0,40.6,29.88,WSW,242,0.0,0.0,65,0.00,,,0.00,WeatherCatV1.14B232,2013-03-08 02:01:00,
2013-03-07 18:06:00,51.9,40.9,29.88,WSW,238,0.0,0.0,66,0.00,,,0.00,WeatherCatV1.14B232,2013-03-08 02:06:00,
2013-03-07 18:11:00,51.8,41.2,29.88,WSW,251,0.0,0.0,67,0.00,,,0.00,WeatherCatV1.14B232,2013-03-08 02:11:00,
2013-03-07 18:16:00,51.7,41.5,29.88,West,262,0.0,0.0,68,0.00,,,0.00,WeatherCatV1.14B232,2013-03-08 02:16:00,
2013-03-07 18:21:00,51.6,41.8,29.88,West,262,0.0,0.0,69,0.00,,,0.00,WeatherCatV1.14B232,2013-03-08 02:21:00,
2013-03-07 18:26:00,51.4,41.6,29.88,SSW,201,0.0,0.0,69,0.00,,,0.00,WeatherCatV1.14B232,2013-03-08 02:26:00,
2013-03-07 18:30:00,51.3,41.9,29.88,SSW,202,0.0,0.0,70,0.00,,,0.00,WeatherCatV1.14B232,2013-03-08 02:30:00,
2013-03-07 18:35:00,51.2,42.1,29.89,SSW,201,0.0,0.0,71,0.00,,,0.00,WeatherCatV1.14B232,2013-03-08 02:35:00,
2013-03-07 18:40:00,51.0,42.3,29.89,WSW,243,0.0,0.0,72,0.00,,,0.00,WeatherCatV1.14B232,2013-03-08 02:40:00,
2013-03-07 18:45:00,50.9,42.2,29.89,WSW,243,0.0,0.0,72,0.00,,,0.00,WeatherCatV1.14B232,2013-03-08 02:45:00,
2013-03-07 18:50:00,50.6,42.6,29.89,WSW,243,0.0,0.0,74,0.00,,,0.00,WeatherCatV1.14B232,2013-03-08 02:50:00,
2013-03-07 18:55:00,50.5,43.2,29.89,WSW,243,0.0,0.0,76,0.00,,,0.00,WeatherCatV1.14B232,2013-03-08 02:55:00,
2013-03-07 19:00:00,50.2,43.3,29.89,West,259,0.0,1.0,77,0.00,,,0.00,WeatherCatV1.14B232,2013-03-08 03:00:00,
2013-03-07 19:05:00,49.9,43.6,29.90,WSW,257,0.0,0.0,79,0.00,,,0.00,WeatherCatV1.14B232,2013-03-08 03:05:00,
2013-03-07 19:10:00,49.7,43.5,29.90,WSW,257,0.0,0.0,79,0.00,,,0.00,WeatherCatV1.14B232,2013-03-08 03:10:00,
2013-03-07 19:15:00,49.5,43.9,29.90,SSE,157,0.0,0.0,81,0.00,,,0.00,WeatherCatV1.14B232,2013-03-08 03:15:00,
2013-03-07 19:20:00,49.4,44.5,29.90,SSE,157,0.0,0.0,83,0.00,,,0.00,WeatherCatV1.14B232,2013-03-08 03:20:00,
2013-03-07 19:25:00,49.2,44.3,29.90,SSE,157,0.0,0.0,83,0.00,,,0.00,WeatherCatV1.14B232,2013-03-08 03:25:00,
2013-03-07 19:30:00,49.0,44.4,29.90,SSE,157,0.0,0.0,84,0.00,,,0.00,WeatherCatV1.14B232,2013-03-08 03:30:00,
2013-03-07 19:35:00,48.9,44.3,29.90,South,188,0.0,0.0,84,0.00,,,0.00,WeatherCatV1.14B232,2013-03-08 03:35:00,
2013-03-07 19:40:00,48.8,44.5,29.90,South,188,0.0,0.0,85,0.00,,,0.00,WeatherCatV1.14B232,2013-03-08 03:40:00,
2013-03-07 19:45:00,48.7,44.7,29.90,South,188,0.0,0.0,86,0.00,,,0.00,WeatherCatV1.14B232,2013-03-08 03:45:00,
2013-03-07 19:50:00,48.5,44.8,29.90,SE,131,0.0,0.0,87,0.00,,,0.00,WeatherCatV1.14B232,2013-03-08 03:50:00,
2013-03-07 19:55:00,48.5,44.8,29.90,SE,131,0.0,0.0,87,0.00,,,0.01,WeatherCatV1.14B232,2013-03-08 03:55:00,
2013-03-07 20:00:00,48.3,44.9,29.90,SE,131,0.0,0.0,88,0.00,,,0.01,WeatherCatV1.14B232,2013-03-08 04:00:00,
2013-03-07 20:05:00,48.2,45.1,29.90,SE,131,0.0,0.0,89,0.00,,,0.01,WeatherCatV1.14B232,2013-03-08 04:05:00,
2013-03-07 20:10:00,48.0,44.9,29.90,South,171,0.0,0.0,89,0.00,,,0.01,WeatherCatV1.14B232,2013-03-08 04:10:00,
2013-03-07 20:15:00,47.9,45.1,29.90,South,171,0.0,0.0,90,0.00,,,0.01,WeatherCatV1.14B232,2013-03-08 04:15:00,
2013-03-07 20:20:00,47.9,45.1,29.90,SW,218,0.0,0.0,90,0.00,,,0.02,WeatherCatV1.14B232,2013-03-08 04:20:00,
2013-03-07 20:25:00,47.8,45.0,29.90,SW,218,0.0,0.0,90,0.00,,,0.02,WeatherCatV1.14B232,2013-03-08 04:25:00,
2013-03-07 20:30:00,47.8,45.0,29.90,SW,218,0.0,0.0,90,0.00,,,0.02,WeatherCatV1.14B232,2013-03-08 04:30:00,
2013-03-07 20:35:00,47.7,45.2,29.91,SW,218,0.0,0.0,91,0.00,,,0.02,WeatherCatV1.14B232,2013-03-08 04:35:00,
2013-03-07 20:40:00,47.6,45.1,29.91,SSW,196,0.0,0.0,91,0.00,,,0.03,WeatherCatV1.14B232,2013-03-08 04:40:00,
2013-03-07 20:45:00,47.7,45.5,29.91,SSW,196,0.0,0.0,92,0.00,,,0.03,WeatherCatV1.14B232,2013-03-08 04:45:00,
2013-03-07 20:50:00,47.6,45.4,29.91,SSW,196,0.0,0.0,92,0.06,,,0.04,WeatherCatV1.14B232,2013-03-08 04:50:00,
2013-03-07 20:55:00,47.5,45.3,29.91,SSW,196,0.0,0.0,92,0.06,,,0.04,WeatherCatV1.14B232,2013-03-08 04:55:00,
2013-03-07 21:00:00,47.5,45.3,29.91,SSW,196,0.0,0.0,92,0.05,,,0.04,WeatherCatV1.14B232,2013-03-08 05:00:00,
2013-03-07 21:05:00,47.4,45.2,29.91,SSW,196,0.0,0.0,92,0.04,,,0.04,WeatherCatV1.14B232,2013-03-08 05:05:00,
2013-03-07 21:10:00,47.3,45.4,29.91,SSW,196,0.0,0.0,93,0.00,,,0.05,WeatherCatV1.14B232,2013-03-08 05:10:00,
2013-03-07 21:15:00,47.2,45.3,29.91,SSW,196,0.0,0.0,93,0.00,,,0.05,WeatherCatV1.14B232,2013-03-08 05:15:00,
2013-03-07 21:20:00,47.1,45.2,29.91,SSW,196,0.0,0.0,93,0.00,,,0.05,WeatherCatV1.14B232,2013-03-08 05:20:00,
2013-03-07 21:25:00,47.1,45.2,29.91,SSW,196,0.0,0.0,93,0.04,,,0.05,WeatherCatV1.14B232,2013-03-08 05:25:00,
2013-03-07 21:30:00,47.1,45.2,29.91,SSW,196,0.0,0.0,93,0.04,,,0.06,WeatherCatV1.14B232,2013-03-08 05:30:00,
2013-03-07 21:32:00,47.1,45.5,29.91,SSW,196,0.0,0.0,94,0.04,,,0.06,WeatherCatV1.14B232,2013-03-08 05:32:00,
2013-03-07 21:37:00,47.1,45.5,29.91,SSW,205,0.0,0.0,94,0.07,,,0.07,WeatherCatV1.14B232,2013-03-08 05:37:00,
2013-03-07 21:42:00,47.1,45.5,29.91,WSW,250,0.0,0.0,94,0.06,,,0.07,WeatherCatV1.14B232,2013-03-08 05:42:00,
2013-03-07 21:47:00,47.0,45.4,29.91,WSW,253,0.0,0.0,94,0.06,,,0.08,WeatherCatV1.14B232,2013-03-08 05:47:00,
2013-03-07 21:52:00,47.0,45.4,29.91,WSW,252,0.0,0.0,94,0.06,,,0.08,WeatherCatV1.14B232,2013-03-08 05:52:00,
2013-03-07 21:57:00,47.0,45.4,29.91,WSW,252,0.0,0.0,94,0.04,,,0.08,WeatherCatV1.14B232,2013-03-08 05:57:00,
2013-03-07 22:02:00,46.9,45.3,29.91,WSW,250,0.0,1.0,94,0.04,,,0.09,WeatherCatV1.14B232,2013-03-08 06:02:00,
2013-03-07 22:07:00,46.8,45.2,29.91,WSW,252,0.0,0.0,94,0.04,,,0.09,WeatherCatV1.14B232,2013-03-08 06:07:00,
2013-03-07 22:12:00,46.8,45.2,29.91,WSW,257,0.0,0.0,94,0.07,,,0.10,WeatherCatV1.14B232,2013-03-08 06:12:00,
2013-03-07 22:17:00,46.8,45.4,29.90,WSW,257,0.0,0.0,95,0.07,,,0.10,WeatherCatV1.14B232,2013-03-08 06:17:00,
2013-03-07 22:22:00,46.8,45.4,29.90,WSW,257,0.0,0.0,95,0.05,,,0.11,WeatherCatV1.14B232,2013-03-08 06:22:00,
2013-03-07 22:27:00,46.7,45.3,29.90,West,259,0.0,0.0,95,0.05,,,0.11,WeatherCatV1.14B232,2013-03-08 06:27:00,
2013-03-07 22:32:00,46.8,45.4,29.90,West,259,0.0,0.0,95,0.05,,,0.11,WeatherCatV1.14B232,2013-03-08 06:32:00,
2013-03-07 22:37:00,46.8,45.4,29.90,West,259,0.0,0.0,95,0.04,,,0.11,WeatherCatV1.14B232,2013-03-08 06:37:00,
2013-03-07 22:42:00,46.7,45.3,29.90,West,260,0.0,1.0,95,0.04,,,0.12,WeatherCatV1.14B232,2013-03-08 06:42:00,
2013-03-07 22:47:00,46.7,45.3,29.90,WSW,247,0.0,0.0,95,0.07,,,0.13,WeatherCatV1.14B232,2013-03-08 06:47:00,
2013-03-07 22:52:00,46.7,45.3,29.90,WSW,247,0.0,0.0,95,0.07,,,0.13,WeatherCatV1.14B232,2013-03-08 06:52:00,
2013-03-07 22:57:00,46.7,45.3,29.90,WSW,247,0.0,0.0,95,0.07,,,0.14,WeatherCatV1.14B232,2013-03-08 06:57:00,
2013-03-07 23:02:00,46.6,45.2,29.90,WSW,247,0.0,0.0,95,0.07,,,0.14,WeatherCatV1.14B232,2013-03-08 07:02:00,
2013-03-07 23:07:00,46.6,45.2,29.90,WSW,247,0.0,0.0,95,0.06,,,0.15,WeatherCatV1.14B232,2013-03-08 07:07:00,
2013-03-07 23:12:00,46.6,45.2,29.90,WSW,247,0.0,0.0,95,0.06,,,0.15,WeatherCatV1.14B232,2013-03-08 07:12:00,
2013-03-07 23:17:00,46.5,45.1,29.90,WSW,247,0.0,0.0,95,0.06,,,0.16,WeatherCatV1.14B232,2013-03-08 07:17:00,
2013-03-07 23:22:00,46.6,45.2,29.90,WSW,247,0.0,0.0,95,0.06,,,0.16,WeatherCatV1.14B232,2013-03-08 07:22:00,
2013-03-07 23:27:00,46.5,45.1,29.90,WSW,247,0.0,0.0,95,0.07,,,0.17,WeatherCatV1.14B232,2013-03-08 07:27:00,
2013-03-07 23:32:00,46.5,45.1,29.90,SW,214,0.0,0.0,95,0.07,,,0.17,WeatherCatV1.14B232,2013-03-08 07:32:00,
2013-03-07 23:37:00,46.6,45.5,29.90,SW,214,0.0,0.0,96,0.07,,,0.18,WeatherCatV1.14B232,2013-03-08 07:37:00,
2013-03-07 23:41:00,46.6,45.5,29.89,SW,214,0.0,0.0,96,0.06,,,0.18,WeatherCatV1.14B232,2013-03-08 07:41:00,
2013-03-07 23:47:00,46.6,45.5,29.89,SW,214,0.0,0.0,96,0.05,,,0.19,WeatherCatV1.14B232,2013-03-08 07:47:00,
2013-03-07 23:51:00,46.6,45.5,29.89,SW,214,0.0,0.0,96,0.05,,,0.19,WeatherCatV1.14B232,2013-03-08 07:51:00,
2013-03-07 23:56:00,46.5,45.4,29.89,SW,216,0.0,0.0,96,0.05,,,0.19,WeatherCatV1.14B232,2013-03-08 07:56:00,